Time;durP1;ratioP1;P1;durP2;ratioP2;P2;SDS_P1;SDS_P2;PMS_P1;PMS_P2;Temp;Humidity;BMP_temperature;BMP_pressure;BME280_temperature;BME280_humidity;BME280_pressure;Samples;Min_cycle;Max_cycle;Signal;HPM_P1;HPM_P2
2023/06/24 00:02:24;;;;;;;8.52;6.10;;;;;;;14.80;100.00;101706.81;4863588;29;20352;-85
2023/06/24 00:04:51;;;;;;;7.13;6.32;;;;;;;14.69;100.00;101718.31;4847988;29;20053;-84
2023/06/24 00:07:19;;;;;;;7.72;6.93;;;;;;;14.58;100.00;101709.59;4869327;29;20076;-84
2023/06/24 00:09:45;;;;;;;5.40;4.90;;;;;;;14.50;100.00;101716.72;4876437;29;20460;-83
2023/06/24 00:12:19;;;;;;;11.48;5.93;;;;;;;14.39;100.00;101714.13;4846422;29;20580;-84
2023/06/24 00:14:50;;;;;;;8.18;5.53;;;;;;;14.31;100.00;101724.72;4845670;29;20041;-85
2023/06/24 00:17:17;;;;;;;7.03;6.40;;;;;;;14.27;100.00;101723.00;4842278;29;20508;-84
2023/06/24 00:19:44;;;;;;;6.85;6.13;;;;;;;14.20;100.00;101726.59;4858544;29;20711;-84
2023/06/24 00:22:11;;;;;;;7.35;6.45;;;;;;;14.14;100.00;101732.75;4859432;29;20109;-84
2023/06/24 00:24:42;;;;;;;7.70;5.82;;;;;;;14.07;100.00;101724.00;4861188;29;20041;-84
2023/06/24 00:27:09;;;;;;;10.50;6.35;;;;;;;14.04;100.00;101731.06;4851753;29;20109;-85
2023/06/24 00:29:35;;;;;;;6.38;5.20;;;;;;;14.01;100.00;101737.22;4854702;29;20063;-84
2023/06/24 00:32:02;;;;;;;8.65;6.45;;;;;;;13.98;100.00;101723.22;4870165;29;20053;-84
2023/06/24 00:34:29;;;;;;;9.05;6.20;;;;;;;13.93;100.00;101722.38;4831351;29;20136;-84
2023/06/24 00:36:55;;;;;;;6.93;5.78;;;;;;;13.89;100.00;101727.63;4874065;29;20041;-84
2023/06/24 00:39:22;;;;;;;7.03;5.57;;;;;;;13.84;100.00;101724.16;4850385;29;20064;-83
2023/06/24 00:41:49;;;;;;;5.60;5.10;;;;;;;13.80;100.00;101729.44;4861291;29;20061;-83
2023/06/24 00:44:16;;;;;;;5.63;4.80;;;;;;;13.78;100.00;101731.19;4849497;29;20052;-84
2023/06/24 00:46:42;;;;;;;6.57;5.47;;;;;;;13.76;100.00;101733.84;4839851;29;20052;-84
2023/06/24 00:49:09;;;;;;;9.98;5.82;;;;;;;13.73;100.00;101736.50;4857480;29;20049;-84
2023/06/24 00:51:36;;;;;;;9.77;7.07;;;;;;;13.71;100.00;101735.63;4854217;29;20404;-84
2023/06/24 00:54:02;;;;;;;7.38;5.55;;;;;;;13.67;100.00;101736.53;4845053;29;20386;-84
2023/06/24 00:56:38;;;;;;;8.60;5.50;;;;;;;13.64;100.00;101739.19;4866482;29;20044;-83
2023/06/24 00:59:05;;;;;;;5.28;4.88;;;;;;;13.63;100.00;101740.06;4863288;29;20049;-85
2023/06/24 01:01:35;;;;;;;8.65;5.60;;;;;;;13.58;100.00;101734.78;4840556;29;20080;-83
2023/06/24 01:04:03;;;;;;;7.68;5.68;;;;;;;13.56;100.00;101731.31;4841739;29;20321;-84
2023/06/24 01:06:31;;;;;;;5.32;4.82;;;;;;;13.51;100.00;101733.94;4871579;29;20048;-82
2023/06/24 01:08:59;;;;;;;9.52;6.63;;;;;;;13.48;100.00;101739.25;4833866;29;20053;-84
2023/06/24 01:11:28;;;;;;;7.85;5.53;;;;;;;13.48;100.00;101746.22;4853827;29;20049;-84
2023/06/24 01:13:54;;;;;;;8.25;5.95;;;;;;;13.46;100.00;101742.75;4846803;29;20041;-83
2023/06/24 01:16:45;;;;;;;6.25;5.63;;;;;;;13.42;100.00;101736.63;4837855;29;20064;-83
2023/06/24 01:19:48;;;;;;;6.35;4.68;;;;;;;13.37;100.00;101741.03;4853156;29;20056;-85
2023/06/24 01:23:14;;;;;;;6.43;5.35;;;;;;;13.36;100.00;101739.22;4853795;29;20064;-84
2023/06/24 01:26:02;;;;;;;5.57;4.97;;;;;;;13.33;100.00;101739.25;4856602;29;20412;-85
2023/06/24 01:28:59;;;;;;;6.38;5.60;;;;;;;13.34;100.00;101735.75;4838352;29;20160;-84
2023/06/24 01:31:49;;;;;;;6.65;5.95;;;;;;;13.30;100.00;101739.28;4850736;29;20136;-84
2023/06/24 01:34:45;;;;;;;5.68;5.28;;;;;;;13.28;100.00;101733.13;4833018;29;20053;-83
2023/06/24 01:37:39;;;;;;;5.88;5.28;;;;;;;13.26;100.00;101743.66;4836894;29;20057;-84
2023/06/24 01:40:19;;;;;;;8.27;5.57;;;;;;;13.22;100.00;101742.78;4840702;29;20053;-84
2023/06/24 01:42:47;;;;;;;9.73;6.18;;;;;;;13.21;100.00;101741.03;4841966;29;20382;-85
2023/06/24 01:45:18;;;;;;;10.48;6.50;;;;;;;13.20;100.00;101746.28;4854185;29;20053;-83
2023/06/24 01:47:48;;;;;;;6.55;5.38;;;;;;;13.22;100.00;101749.81;4849399;29;20041;-84
2023/06/24 01:50:20;;;;;;;8.18;6.07;;;;;;;13.21;100.00;101748.91;4854821;29;20041;-84
2023/06/24 01:52:47;;;;;;;5.40;4.85;;;;;;;13.18;100.00;101748.03;4853865;29;20307;-84
2023/06/24 01:55:19;;;;;;;10.02;5.63;;;;;;;13.16;100.00;101747.19;4853239;29;20064;-84
2023/06/24 01:57:50;;;;;;;7.30;5.82;;;;;;;13.13;100.00;101748.06;4849553;29;20053;-84
2023/06/24 02:00:18;;;;;;;7.88;6.38;;;;;;;13.13;100.00;101755.06;4853358;29;20109;-84
2023/06/24 02:02:46;;;;;;;6.30;5.35;;;;;;;13.11;100.00;101756.84;4852307;29;20050;-84
2023/06/24 02:05:13;;;;;;;8.40;5.50;;;;;;;13.07;100.00;101754.22;4856496;29;20057;-84
2023/06/24 02:07:42;;;;;;;7.10;5.50;;;;;;;13.02;100.00;101745.47;4841968;29;20313;-84
2023/06/24 02:10:10;;;;;;;7.80;6.60;;;;;;;12.98;100.00;101751.56;4839766;29;20045;-84
2023/06/24 02:12:38;;;;;;;7.57;6.40;;;;;;;12.98;100.00;101750.72;4846164;29;20055;-84
2023/06/24 02:15:06;;;;;;;6.63;5.50;;;;;;;12.96;100.00;101757.72;4843043;29;20049;-84
2023/06/24 02:17:33;;;;;;;8.55;6.50;;;;;;;12.91;100.00;101753.34;4854650;29;20110;-84
2023/06/24 02:20:01;;;;;;;9.85;6.40;;;;;;;12.91;100.00;101747.22;4857721;29;20083;-84
2023/06/24 02:22:28;;;;;;;5.95;5.40;;;;;;;12.91;100.00;101747.22;4857538;29;20064;-84
2023/06/24 02:24:56;;;;;;;8.57;6.10;;;;;;;12.88;100.00;101748.09;4873486;29;20469;-83
2023/06/24 02:27:23;;;;;;;7.55;6.38;;;;;;;12.87;100.00;101748.97;4857983;29;20052;-85
2023/06/24 02:29:51;;;;;;;9.00;6.68;;;;;;;12.91;100.00;101748.09;4868538;29;20073;-85
2023/06/24 02:32:17;;;;;;;8.63;6.25;;;;;;;12.90;100.00;101746.31;4871226;29;20048;-84
2023/06/24 02:34:43;;;;;;;7.78;6.85;;;;;;;12.90;100.00;101754.22;4845348;29;20045;-83
2023/06/24 02:37:10;;;;;;;9.98;6.40;;;;;;;12.86;100.00;101739.31;4856061;29;20057;-84
2023/06/24 02:39:43;;;;;;;6.75;5.20;;;;;;;12.82;100.00;101739.34;4840736;29;20477;-84
2023/06/24 02:42:11;;;;;;;7.28;5.72;;;;;;;12.80;100.00;101738.47;4876316;29;20060;-85
2023/06/24 02:44:40;;;;;;;8.13;6.82;;;;;;;12.78;100.00;101743.72;4867703;29;20037;-83
2023/06/24 02:47:10;;;;;;;9.35;6.10;;;;;;;12.76;100.00;101745.47;4870527;29;20053;-84
2023/06/24 02:49:39;;;;;;;5.82;5.28;;;;;;;12.73;100.00;101746.34;4854896;29;20055;-85
2023/06/24 02:52:06;;;;;;;6.88;4.97;;;;;;;12.72;100.00;101742.00;4852671;29;20401;-84
2023/06/24 02:54:34;;;;;;;7.30;6.03;;;;;;;12.72;100.00;101746.34;4861351;29;20037;-84
2023/06/24 02:57:01;;;;;;;8.88;6.32;;;;;;;12.70;100.00;101745.50;4852098;29;20148;-84
2023/06/24 02:59:28;;;;;;;12.23;6.80;;;;;;;12.69;100.00;101751.63;4873470;29;20415;-83
2023/06/24 03:01:55;;;;;;;7.13;6.10;;;;;;;12.70;100.00;101756.88;4861388;29;20045;-84
2023/06/24 03:04:22;;;;;;;8.15;6.90;;;;;;;12.70;100.00;101762.13;4862609;29;20082;-85
2023/06/24 03:06:49;;;;;;;8.63;7.13;;;;;;;12.70;100.00;101762.13;4859433;29;20060;-86
2023/06/24 03:09:17;;;;;;;10.38;6.20;;;;;;;12.70;100.00;101766.50;4861235;29;20358;-84
2023/06/24 03:11:46;;;;;;;12.32;6.82;;;;;;;12.70;100.00;101764.75;4854797;29;20045;-85
2023/06/24 03:14:13;;;;;;;9.10;7.25;;;;;;;12.69;100.00;101765.63;4842563;29;20063;-85
2023/06/24 03:16:40;;;;;;;10.52;6.57;;;;;;;12.69;100.00;101773.50;4870448;29;20044;-85
2023/06/24 03:19:06;;;;;;;8.38;6.60;;;;;;;12.69;100.00;101772.63;4859624;29;20052;-84
2023/06/24 03:21:33;;;;;;;11.23;7.10;;;;;;;12.65;100.00;101774.38;4842618;29;20062;-84
2023/06/24 03:24:00;;;;;;;8.98;6.40;;;;;;;12.63;100.00;101780.50;4845458;29;20067;-85
2023/06/24 03:26:33;;;;;;;8.55;5.72;;;;;;;12.59;100.00;101771.75;4859968;29;20219;-85
2023/06/24 03:29:00;;;;;;;;;;;;;;;12.61;100.00;101774.38;4857111;29;20064;-85
2023/06/24 03:31:27;;;;;;;6.82;5.65;;;;;;;12.60;100.00;101778.75;4856532;29;20023;-85
2023/06/24 03:33:53;;;;;;;13.82;7.18;;;;;;;12.61;100.00;101772.63;4854804;29;20295;-85
2023/06/24 03:36:20;;;;;;;7.00;6.20;;;;;;;12.63;100.00;101773.47;4861542;29;20299;-85
2023/06/24 03:38:47;;;;;;;11.27;6.70;;;;;;;12.63;100.00;101773.47;4843678;29;20473;-85
2023/06/24 03:41:14;;;;;;;7.80;7.10;;;;;;;12.61;100.00;101770.00;4857434;29;20057;-83
2023/06/24 03:43:41;;;;;;;8.15;5.45;;;;;;;12.62;100.00;101774.38;4846141;29;20109;-84
2023/06/24 03:46:08;;;;;;;7.32;6.55;;;;;;;12.63;100.00;101767.38;4862701;29;20532;-84
2023/06/24 03:48:36;;;;;;;7.32;6.10;;;;;;;12.63;100.00;101770.84;4846220;29;20055;-84
2023/06/24 03:51:02;;;;;;;10.15;7.15;;;;;;;12.69;100.00;101767.38;4840147;29;20052;-84
2023/06/24 03:53:29;;;;;;;9.93;7.85;;;;;;;12.75;100.00;101783.16;4842383;29;20279;-84
2023/06/24 03:55:55;;;;;;;9.27;6.68;;;;;;;12.78;100.00;101780.50;4868688;29;20048;-83
2023/06/24 03:58:22;;;;;;;11.43;6.95;;;;;;;12.82;100.00;101781.41;4838882;29;20109;-85
2023/06/24 04:00:49;;;;;;;7.82;6.28;;;;;;;12.87;100.00;101777.88;4852355;29;20056;-85
2023/06/24 04:03:18;;;;;;;12.40;6.53;;;;;;;12.91;100.00;101774.38;4854130;29;20053;-85
2023/06/24 04:05:45;;;;;;;7.57;6.63;;;;;;;12.98;100.00;101777.00;4855393;29;20102;-84
2023/06/24 04:08:14;;;;;;;12.20;8.82;;;;;;;13.05;100.00;101784.00;4855761;29;20486;-84
2023/06/24 04:10:43;;;;;;;7.85;6.93;;;;;;;13.13;100.00;101770.84;4844803;29;20049;-85
2023/06/24 04:13:09;;;;;;;9.18;7.85;;;;;;;13.23;100.00;101776.09;4841213;29;20734;-82
2023/06/24 04:15:36;;;;;;;9.55;6.68;;;;;;;13.31;100.00;101776.06;4844142;29;20076;-84
2023/06/24 04:18:03;;;;;;;9.05;6.70;;;;;;;13.43;100.00;101777.81;4857223;29;20049;-84
2023/06/24 04:20:30;;;;;;;7.53;6.80;;;;;;;13.57;100.00;101776.03;4837991;29;20040;-84
2023/06/24 04:22:57;;;;;;;9.52;7.03;;;;;;;13.68;100.00;101777.75;4859253;29;20076;-84
2023/06/24 04:25:23;;;;;;;7.78;6.97;;;;;;;13.76;100.00;101781.22;4856359;29;20068;-85
2023/06/24 04:27:49;;;;;;;7.80;6.90;;;;;;;13.83;100.00;101779.44;4856385;29;20041;-83
2023/06/24 04:30:16;;;;;;;8.25;6.55;;;;;;;13.88;100.00;101780.28;4854361;29;20057;-84
2023/06/24 04:32:43;;;;;;;8.23;6.00;;;;;;;13.97;100.00;101785.50;4855352;29;20071;-83
2023/06/24 04:35:10;;;;;;;14.45;6.47;;;;;;;14.05;100.00;101774.94;4856150;29;20045;-85
2023/06/24 04:37:36;;;;;;;6.28;5.47;;;;;;;14.12;100.00;101776.66;4833842;29;20121;-83
2023/06/24 04:40:03;;;;;;;8.55;5.57;;;;;;;14.20;100.00;101784.53;4868381;29;20048;-85
2023/06/24 04:42:30;;;;;;;9.52;7.38;;;;;;;14.25;100.00;101780.09;4867538;29;20049;-85
2023/06/24 04:44:56;;;;;;;7.88;6.15;;;;;;;14.29;100.00;101792.38;4843005;29;20461;-85
2023/06/24 04:47:23;;;;;;;7.75;6.32;;;;;;;14.35;100.00;101792.34;4844167;29;20421;-84
2023/06/24 04:49:49;;;;;;;8.23;5.93;;;;;;;14.42;100.00;101787.00;4859504;29;20049;-85
2023/06/24 04:52:16;;;;;;;6.57;5.43;;;;;;;14.47;100.00;101783.47;4843471;29;20045;-85
2023/06/24 04:54:43;;;;;;;6.47;5.85;;;;;;;14.53;100.00;101775.50;4857466;29;20055;-85
2023/06/24 04:57:15;;;;;;;7.45;5.85;;;;;;;14.61;100.00;101780.72;4854963;29;20817;-85
2023/06/24 04:59:42;;;;;;;7.63;5.75;;;;;;;14.70;100.00;101787.72;4828877;29;20060;-84
2023/06/24 05:02:08;;;;;;;6.10;5.30;;;;;;;14.77;100.00;101784.16;4841068;29;20052;-86
2023/06/24 05:04:34;;;;;;;8.13;6.25;;;;;;;14.83;100.00;101784.06;4866655;29;20052;-84
2023/06/24 05:07:01;;;;;;;7.40;5.68;;;;;;;14.88;100.00;101792.81;4841985;29;20049;-85
2023/06/24 05:09:28;;;;;;;8.70;6.35;;;;;;;14.96;100.00;101799.81;4875160;29;20057;-84
2023/06/24 05:11:54;;;;;;;9.88;6.40;;;;;;;15.02;100.00;101797.13;4856157;29;20097;-85
2023/06/24 05:14:22;;;;;;;10.02;6.75;;;;;;;15.07;100.00;101792.69;4858301;29;20052;-83
2023/06/24 05:16:49;;;;;;;7.05;5.50;;;;;;;15.13;100.00;101794.38;4846161;29;20445;-83
2023/06/24 05:19:16;;;;;;;6.93;5.63;;;;;;;15.20;100.00;101799.56;4870982;29;20128;-84
2023/06/24 05:21:42;;;;;;;9.48;6.55;;;;;;;15.30;100.00;101802.13;4836434;29;20065;-85
2023/06/24 05:24:09;;;;;;;8.77;6.55;;;;;;;15.34;100.00;101803.84;4838806;29;20087;-84
2023/06/24 05:26:35;;;;;;;6.97;5.70;;;;;;;15.39;100.00;101802.88;4853689;29;20064;-84
2023/06/24 05:29:04;;;;;;;8.93;6.28;;;;;;;15.45;100.00;101807.25;4839359;29;20064;-83
2023/06/24 05:31:31;;;;;;;8.65;6.22;;;;;;;15.52;100.00;101808.91;4851793;29;20060;-84
2023/06/24 05:33:57;;;;;;;6.88;6.13;;;;;;;15.57;100.00;101802.72;4868676;29;20489;-84
2023/06/24 05:36:24;;;;;;;8.20;6.65;;;;;;;15.62;100.00;101806.16;4856396;29;20037;-84
2023/06/24 05:38:50;;;;;;;7.88;6.30;;;;;;;15.68;100.00;101806.09;4859755;29;20048;-84
2023/06/24 05:41:17;;;;;;;9.82;7.05;;;;;;;15.73;100.00;101808.69;4857297;29;20056;-85
2023/06/24 05:43:44;;;;;;;7.60;6.35;;;;;;;15.79;100.00;101808.63;4847902;29;20045;-84
2023/06/24 05:46:11;;;;;;;6.93;5.70;;;;;;;15.82;100.00;101803.31;4843775;29;20046;-84
2023/06/24 05:48:38;;;;;;;9.85;6.30;;;;;;;15.88;100.00;101800.63;4856052;29;20128;-85
2023/06/24 05:51:04;;;;;;;7.15;6.43;;;;;;;15.93;100.00;101803.19;4871623;29;20501;-85
2023/06/24 05:53:31;;;;;;;9.88;6.97;;;;;;;15.98;100.00;101811.91;4848519;29;20159;-84
2023/06/24 05:55:57;;;;;;;10.18;7.38;;;;;;;16.00;100.00;101805.72;4858943;29;20131;-85
2023/06/24 05:58:24;;;;;;;10.45;8.05;;;;;;;16.03;100.00;101804.81;4843264;29;20059;-85
2023/06/24 06:00:50;;;;;;;11.20;7.80;;;;;;;16.09;100.00;101810.03;4847826;29;20088;-84
2023/06/24 06:03:17;;;;;;;7.40;6.70;;;;;;;16.12;100.00;101817.91;4852651;29;20092;-85
2023/06/24 06:05:44;;;;;;;9.80;8.07;;;;;;;16.16;100.00;101806.38;4862628;29;20080;-85
2023/06/24 06:08:10;;;;;;;9.40;6.35;;;;;;;16.19;100.00;101803.72;4858493;29;20073;-84
2023/06/24 06:10:37;;;;;;;9.98;6.70;;;;;;;16.29;100.00;101803.59;4855883;29;20049;-85
2023/06/24 06:13:03;;;;;;;10.18;6.75;;;;;;;16.30;100.00;101802.69;4859041;29;20053;-85
2023/06/24 06:15:30;;;;;;;8.70;6.85;;;;;;;16.34;100.00;101797.31;4858443;29;20132;-85
2023/06/24 06:17:56;;;;;;;8.73;6.55;;;;;;;16.45;100.00;101796.28;4855618;29;20481;-85
2023/06/24 06:20:23;;;;;;;7.50;6.68;;;;;;;16.45;100.00;101798.94;4794055;29;1048642;-86
2023/06/24 06:22:51;;;;;;;9.98;7.75;;;;;;;16.44;100.00;101798.06;4849548;29;20991;-85
2023/06/24 06:25:17;;;;;;;10.43;7.05;;;;;;;16.47;100.00;101813.03;4837249;29;20670;-84
2023/06/24 06:27:44;;;;;;;8.63;7.53;;;;;;;16.47;100.00;101808.59;4839807;29;20054;-85
2023/06/24 06:30:11;;;;;;;10.02;6.03;;;;;;;16.49;100.00;101812.09;4834223;29;20057;-87
2023/06/24 06:32:38;;;;;;;8.20;6.10;;;;;;;16.55;100.00;101803.19;4833170;29;20138;-86
2023/06/24 06:35:05;;;;;;;7.75;5.70;;;;;;;16.65;100.00;101807.44;4835251;29;20057;-84
2023/06/24 06:37:31;;;;;;;6.95;6.22;;;;;;;16.77;100.00;101809.00;4826396;29;20049;-85
2023/06/24 06:39:58;;;;;;;6.53;5.63;;;;;;;16.84;100.00;101807.13;4826756;29;20528;-85
2023/06/24 06:42:24;;;;;;;6.47;5.32;;;;;;;16.81;100.00;101805.41;4856224;29;20049;-83
2023/06/24 06:44:51;;;;;;;10.32;5.50;;;;;;;16.86;100.00;101803.56;4837730;29;20048;-85
2023/06/24 06:47:17;;;;;;;6.70;5.65;;;;;;;17.01;100.00;101798.94;4841583;29;20310;-85
2023/06/24 06:49:44;;;;;;;4.97;4.57;;;;;;;17.09;100.00;101801.44;4849452;29;20052;-86
2023/06/24 06:52:10;;;;;;;8.10;5.50;;;;;;;17.18;100.00;101809.22;4833262;29;20054;-86
2023/06/24 06:54:37;;;;;;;8.00;6.07;;;;;;;17.25;99.84;101802.94;4836548;29;20071;-85
2023/06/24 06:57:04;;;;;;;6.63;4.75;;;;;;;17.33;99.32;101800.16;4839614;29;20049;-85
2023/06/24 06:59:34;;;;;;;6.15;4.95;;;;;;;17.43;98.72;101796.44;4847922;29;20081;-86
2023/06/24 07:02:01;;;;;;;6.53;5.90;;;;;;;17.49;98.09;101798.06;4837364;29;20077;-84
2023/06/24 07:04:27;;;;;;;7.05;4.85;;;;;;;17.55;96.81;101791.78;4838672;29;20109;-85
2023/06/24 07:06:54;;;;;;;9.40;5.30;;;;;;;17.59;96.41;101802.28;4835828;29;20050;-84
2023/06/24 07:09:20;;;;;;;5.80;4.78;;;;;;;17.63;95.95;101795.16;4852191;29;20088;-86
2023/06/24 07:11:47;;;;;;;6.00;5.38;;;;;;;17.67;94.91;101800.34;4848422;29;20078;-85
2023/06/24 07:14:14;;;;;;;6.30;4.70;;;;;;;17.77;95.03;101805.44;4840430;29;20140;-85
2023/06/24 07:16:44;;;;;;;4.90;4.40;;;;;;;17.85;93.71;101798.25;4837590;29;20488;-84
2023/06/24 07:19:11;;;;;;;6.03;4.90;;;;;;;17.96;92.11;101803.31;4841723;29;20057;-84
2023/06/24 07:21:39;;;;;;;9.45;5.25;;;;;;;18.14;91.48;101799.41;4851217;29;20079;-87
2023/06/24 07:24:06;;;;;;;4.28;3.42;;;;;;;18.31;85.13;101802.53;4846532;29;20074;-86
2023/06/24 07:26:32;;;;;;;3.88;3.42;;;;;;;18.49;82.95;101803.88;4828354;29;20428;-84
2023/06/24 07:28:59;;;;;;;4.32;3.70;;;;;;;18.82;82.87;101811.06;4833186;29;20468;-86
2023/06/24 07:31:28;;;;;;;5.88;3.90;;;;;;;19.35;82.03;101805.31;4822225;29;20053;-84
2023/06/24 07:33:55;;;;;;;5.90;3.20;;;;;;;19.98;81.67;101818.59;4822797;29;20114;-83
2023/06/24 07:36:21;;;;;;;7.07;4.00;;;;;;;20.53;78.15;101816.00;4837765;29;20182;-86
2023/06/24 07:38:48;;;;;;;3.67;3.20;;;;;;;21.17;77.54;101824.59;4821752;29;20061;-87
2023/06/24 07:41:15;;;;;;;3.88;3.22;;;;;;;21.77;74.56;101819.78;4829122;29;20594;-85
2023/06/24 07:43:41;;;;;;;8.48;3.65;;;;;;;22.34;73.48;101827.41;4834297;29;20056;-84
2023/06/24 07:46:08;;;;;;;3.42;3.05;;;;;;;22.74;66.71;101815.16;4833170;29;20049;-84
2023/06/24 07:48:35;;;;;;;3.47;3.17;;;;;;;23.19;68.90;101819.47;4856107;29;20758;-86
2023/06/24 07:51:02;;;;;;;3.55;3.28;;;;;;;23.44;67.93;101821.94;4823762;29;20688;-86
2023/06/24 07:53:28;;;;;;;3.65;3.00;;;;;;;23.80;65.68;101817.66;4834530;29;20059;-85
2023/06/24 07:55:54;;;;;;;5.65;2.25;;;;;;;24.17;58.38;101825.78;4840589;29;20187;-86
2023/06/24 07:58:21;;;;;;;2.20;2.10;;;;;;;24.25;55.68;101819.13;4842491;29;20057;-83
2023/06/24 08:00:48;;;;;;;2.60;2.40;;;;;;;24.76;51.60;101818.50;4822673;29;20074;-86
2023/06/24 08:03:15;;;;;;;2.03;1.92;;;;;;;25.27;49.49;101811.38;4839074;29;20057;-85
2023/06/24 08:05:41;;;;;;;3.53;2.13;;;;;;;25.82;45.17;101816.56;4832891;29;20416;-85
2023/06/24 08:08:09;;;;;;;3.75;2.17;;;;;;;26.05;43.75;101818.00;4838357;29;20518;-86
2023/06/24 08:10:36;;;;;;;2.03;1.85;;;;;;;26.03;43.95;101817.19;4821332;29;20444;-85
2023/06/24 08:13:02;;;;;;;2.95;2.45;;;;;;;26.42;42.52;101814.06;4837353;29;20487;-85
2023/06/24 08:15:29;;;;;;;3.08;2.35;;;;;;;26.62;40.97;101820.13;4821734;29;20144;-85
2023/06/24 08:17:55;;;;;;;2.03;1.92;;;;;;;26.48;42.09;101820.94;4822809;29;20068;-84
2023/06/24 08:20:23;;;;;;;2.15;2.05;;;;;;;27.34;41.86;101817.66;4855905;29;20054;-85
2023/06/24 08:22:50;;;;;;;2.33;2.13;;;;;;;27.99;40.48;101820.81;4850882;29;20386;-84
2023/06/24 08:25:17;;;;;;;3.97;2.42;;;;;;;27.84;41.01;101820.84;4852144;29;20085;-84
2023/06/24 08:27:46;;;;;;;3.03;2.55;;;;;;;27.93;41.18;101816.69;4838564;29;20499;-84
2023/06/24 08:30:15;;;;;;;2.72;2.53;;;;;;;28.45;40.27;101817.84;4858028;29;20042;-85
2023/06/24 08:32:41;;;;;;;4.28;2.70;;;;;;;28.87;39.71;101815.09;4852336;29;20106;-85
2023/06/24 08:35:11;;;;;;;2.92;2.65;;;;;;;29.22;39.45;101814.47;4854708;29;20057;-84
2023/06/24 08:37:40;;;;;;;2.22;2.03;;;;;;;29.57;37.90;101805.75;4861195;29;20042;-84
2023/06/24 08:40:07;;;;;;;2.50;2.30;;;;;;;29.94;38.12;101802.25;4839825;29;20046;-83
2023/06/24 08:42:34;;;;;;;2.60;2.40;;;;;;;30.08;38.19;101802.09;4842650;29;20053;-85
2023/06/24 08:45:02;;;;;;;3.10;2.90;;;;;;;30.33;36.66;101806.53;4845289;29;20440;-85
2023/06/24 08:47:30;;;;;;;3.17;2.88;;;;;;;29.40;36.89;101814.16;4839826;29;20094;-84
2023/06/24 08:50:14;;;;;;;2.55;2.35;;;;;;;29.27;37.90;101816.88;4862498;29;20430;-84
2023/06/24 08:52:52;;;;;;;3.50;2.58;;;;;;;29.91;37.03;101816.84;4836633;29;20582;-85
2023/06/24 08:55:24;;;;;;;2.35;2.25;;;;;;;30.15;36.52;101814.16;4855746;29;20050;-85
2023/06/24 08:57:51;;;;;;;2.58;2.40;;;;;;;30.85;36.17;101800.88;4853483;29;20046;-85
2023/06/24 09:00:18;;;;;;;3.45;3.10;;;;;;;31.69;34.04;101807.91;4843334;29;20478;-85
2023/06/24 09:02:45;;;;;;;2.40;2.30;;;;;;;31.88;34.27;101810.00;4851914;29;20056;-85
2023/06/24 09:05:12;;;;;;;2.65;2.38;;;;;;;31.95;33.94;101812.03;4857265;29;20053;-82
2023/06/24 09:07:39;;;;;;;2.67;2.47;;;;;;;31.75;33.70;101808.28;4840515;29;20049;-86
2023/06/24 09:10:06;;;;;;;2.30;2.13;;;;;;;31.93;33.84;101800.50;4843646;29;20053;-85
2023/06/24 09:12:35;;;;;;;2.55;2.35;;;;;;;32.52;32.65;101805.66;4841228;29;20060;-85
2023/06/24 09:15:04;;;;;;;3.78;2.75;;;;;;;32.77;32.37;101797.16;4843989;29;20106;-87
2023/06/24 09:17:31;;;;;;;2.88;2.50;;;;;;;32.80;31.87;101793.31;4843200;29;20042;-85
2023/06/24 09:20:10;;;;;;;2.17;2.08;;;;;;;33.15;31.06;101792.13;4841205;29;20144;-86
2023/06/24 09:22:41;;;;;;;2.67;2.53;;;;;;;33.27;30.42;101792.91;4859785;29;20053;-87
2023/06/24 09:25:08;;;;;;;2.03;1.92;;;;;;;33.05;31.13;101794.78;4846096;29;20053;-86
2023/06/24 09:27:35;;;;;;;2.30;2.20;;;;;;;33.24;30.77;101791.31;4849640;29;20048;-86
2023/06/24 09:30:19;;;;;;;3.20;2.80;;;;;;;33.77;29.28;101779.41;4867848;29;20117;-86
2023/06/24 09:32:46;;;;;;;4.15;2.47;;;;;;;34.23;29.89;101779.78;4861417;29;20078;-85
2023/06/24 09:35:12;;;;;;;2.42;2.28;;;;;;;34.25;29.33;101777.78;4877050;29;20041;-86
2023/06/24 09:37:39;;;;;;;2.25;2.15;;;;;;;34.11;28.81;101775.50;4856616;29;20416;-86
2023/06/24 09:40:08;;;;;;;2.78;2.50;;;;;;;34.16;29.76;101759.63;4852541;29;20519;-86
2023/06/24 09:42:35;;;;;;;2.70;2.50;;;;;;;34.36;28.98;101765.09;4855905;29;20059;-86
2023/06/24 09:45:06;;;;;;;2.40;2.20;;;;;;;34.86;28.70;101767.66;4865567;29;20081;-88
2023/06/24 09:47:33;;;;;;;2.67;2.45;;;;;;;35.59;28.15;101764.25;4861749;29;20049;-88
2023/06/24 09:50:00;;;;;;;2.33;2.15;;;;;;;36.34;26.47;101768.63;4874866;29;20170;-86
2023/06/24 09:52:27;;;;;;;3.15;2.95;;;;;;;35.46;27.74;101757.44;4841223;29;20061;-87
2023/06/24 09:54:57;;;;;;;3.08;2.90;;;;;;;34.90;28.39;101762.75;4860245;29;20405;-86
2023/06/24 09:57:30;;;;;;;2.25;2.10;;;;;;;34.73;28.70;101761.63;4848614;29;20074;-86
2023/06/24 09:59:57;;;;;;;3.00;2.78;;;;;;;34.97;28.75;101754.84;4847187;29;20132;-86
2023/06/24 10:02:24;;;;;;;3.28;2.97;;;;;;;35.04;28.92;101753.28;4849873;29;20531;-87
2023/06/24 10:04:53;;;;;;;2.92;2.33;;;;;;;36.07;28.26;101750.47;4860890;29;20117;-86
2023/06/24 10:07:20;;;;;;;2.53;2.40;;;;;;;36.49;27.80;101751.72;4866640;29;20033;-86
2023/06/24 10:09:46;;;;;;;2.30;2.20;;;;;;;36.28;27.08;101752.03;4862212;29;20053;-87
2023/06/24 10:12:13;;;;;;;2.58;2.35;;;;;;;35.93;27.87;101751.84;4860247;29;20057;-86
2023/06/24 10:14:39;;;;;;;2.65;2.33;;;;;;;36.06;27.89;101746.91;4860578;29;20116;-86
2023/06/24 10:17:06;;;;;;;2.05;1.95;;;;;;;36.52;26.90;101754.13;4848400;29;20044;-86
2023/06/24 10:19:40;;;;;;;2.40;2.17;;;;;;;35.15;28.41;101744.06;4864521;29;20104;-87
2023/06/24 10:22:11;;;;;;;2.20;2.10;;;;;;;35.59;28.75;101747.03;4861465;29;20056;-87
2023/06/24 10:24:44;;;;;;;2.15;1.98;;;;;;;36.19;27.14;101741.06;4864167;29;20112;-87
2023/06/24 10:27:17;;;;;;;2.92;2.47;;;;;;;36.54;27.15;101741.19;4864508;29;20044;-87
2023/06/24 10:29:50;;;;;;;4.07;2.60;;;;;;;36.82;25.98;101735.56;4841547;29;20080;-86
2023/06/24 10:32:18;;;;;;;3.83;2.40;;;;;;;36.82;27.64;101736.44;4874426;29;20113;-87
2023/06/24 10:34:47;;;;;;;3.38;2.28;;;;;;;37.21;26.14;101735.13;4848262;29;20160;-86
2023/06/24 10:37:19;;;;;;;2.42;2.30;;;;;;;37.34;26.13;101735.56;4848248;29;20048;-86
2023/06/24 10:39:48;;;;;;;2.13;2.03;;;;;;;37.87;25.66;101730.81;4845560;29;20076;-86
2023/06/24 10:42:37;;;;;;;1.85;1.75;;;;;;;38.52;23.79;101726.38;4863775;29;20074;-87
2023/06/24 10:45:10;;;;;;;2.13;2.00;;;;;;;38.30;24.28;101718.91;4858872;29;20139;-86
2023/06/24 10:47:46;;;;;;;3.15;2.20;;;;;;;38.45;24.46;101714.44;4874369;29;20203;-84
2023/06/24 10:50:15;;;;;;;2.63;2.22;;;;;;;37.41;25.79;101711.19;4876900;29;20060;-86
2023/06/24 10:52:53;;;;;;;2.15;1.98;;;;;;;36.68;25.76;101712.50;4856879;29;20044;-87
2023/06/24 10:55:20;;;;;;;2.38;2.17;;;;;;;37.62;25.28;101708.00;4865303;29;20524;-86
2023/06/24 10:57:47;;;;;;;1.90;1.80;;;;;;;37.74;25.32;101711.25;4872036;29;20052;-85
2023/06/24 11:00:15;;;;;;;2.70;2.50;;;;;;;39.07;24.15;101707.47;4848300;29;20053;-86
2023/06/24 11:02:42;;;;;;;1.98;1.88;;;;;;;38.86;23.99;101697.09;4873771;29;20149;-86
2023/06/24 11:05:09;;;;;;;2.20;2.10;;;;;;;39.70;23.77;101696.59;4861441;29;20156;-86
2023/06/24 11:07:39;;;;;;;1.80;1.70;;;;;;;40.52;22.98;101689.56;4861915;29;20053;-86
2023/06/24 11:10:15;;;;;;;2.47;2.33;;;;;;;41.34;22.57;101687.75;4861801;29;20052;-85
2023/06/24 11:12:43;;;;;;;2.22;2.10;;;;;;;40.50;22.01;101699.88;4844557;29;20076;-87
2023/06/24 11:15:15;;;;;;;2.42;2.28;;;;;;;39.25;23.28;101681.75;4849759;29;20076;-86
2023/06/24 11:17:42;;;;;;;3.15;2.28;;;;;;;38.91;23.99;101683.75;4850107;29;20053;-85
2023/06/24 11:20:14;;;;;;;2.38;2.10;;;;;;;39.52;23.34;101684.00;4847930;29;20053;-84
2023/06/24 11:22:42;;;;;;;2.20;2.10;;;;;;;40.03;22.85;101679.88;4842383;29;20511;-85
2023/06/24 11:25:21;;;;;;;2.35;2.15;;;;;;;40.19;21.90;101685.22;4844848;29;20192;-85
2023/06/24 11:27:51;;;;;;;2.30;2.20;;;;;;;40.08;22.64;101680.22;4865615;29;20485;-86